sensor_id;sensor_type;location;lat;lon;timestamp;temperature;humidity
20973;DHT22;10645;52.370;13.314;2023-07-22T00:02:19;10.60;99.90
20973;DHT22;10645;52.370;13.314;2023-07-22T00:04:45;10.60;99.90
20973;DHT22;10645;52.370;13.314;2023-07-22T00:07:11;10.70;99.90
20973;DHT22;10645;52.370;13.314;2023-07-22T00:09:37;10.70;99.90
20973;DHT22;10645;52.370;13.314;2023-07-22T00:12:04;10.80;99.90
20973;DHT22;10645;52.370;13.314;2023-07-22T00:14:31;10.90;99.90
20973;DHT22;10645;52.370;13.314;2023-07-22T00:16:57;11.00;99.90
20973;DHT22;10645;52.370;13.314;2023-07-22T00:19:23;11.10;99.90
20973;DHT22;10645;52.370;13.314;2023-07-22T00:21:49;11.20;99.90
20973;DHT22;10645;52.370;13.314;2023-07-22T00:24:15;11.30;99.90
20973;DHT22;10645;52.370;13.314;2023-07-22T00:26:41;11.40;99.90
20973;DHT22;10645;52.370;13.314;2023-07-22T00:29:08;11.60;99.90
20973;DHT22;10645;52.370;13.314;2023-07-22T00:31:34;11.70;99.90
20973;DHT22;10645;52.370;13.314;2023-07-22T00:34:00;12.00;99.90
20973;DHT22;10645;52.370;13.314;2023-07-22T00:36:26;12.20;99.90
20973;DHT22;10645;52.370;13.314;2023-07-22T00:38:53;12.40;99.90
20973;DHT22;10645;52.370;13.314;2023-07-22T00:41:19;12.40;99.90
20973;DHT22;10645;52.370;13.314;2023-07-22T00:43:45;12.60;99.90
20973;DHT22;10645;52.370;13.314;2023-07-22T00:46:11;12.60;99.90
20973;DHT22;10645;52.370;13.314;2023-07-22T00:48:38;12.70;99.90
20973;DHT22;10645;52.370;13.314;2023-07-22T00:51:04;12.70;99.90
20973;DHT22;10645;52.370;13.314;2023-07-22T00:53:31;12.80;99.90
20973;DHT22;10645;52.370;13.314;2023-07-22T00:55:57;12.80;99.90
20973;DHT22;10645;52.370;13.314;2023-07-22T00:58:23;12.90;99.90
20973;DHT22;10645;52.370;13.314;2023-07-22T01:00:49;12.90;99.90
20973;DHT22;10645;52.370;13.314;2023-07-22T01:03:15;12.90;99.90
20973;DHT22;10645;52.370;13.314;2023-07-22T01:05:41;13.00;99.90
20973;DHT22;10645;52.370;13.314;2023-07-22T01:08:07;13.00;99.90
20973;DHT22;10645;52.370;13.314;2023-07-22T01:10:33;13.10;99.90
20973;DHT22;10645;52.370;13.314;2023-07-22T01:12:59;13.10;99.90
20973;DHT22;10645;52.370;13.314;2023-07-22T01:15:26;13.10;99.90
20973;DHT22;10645;52.370;13.314;2023-07-22T01:17:53;13.00;99.90
20973;DHT22;10645;52.370;13.314;2023-07-22T01:20:19;13.10;99.90
20973;DHT22;10645;52.370;13.314;2023-07-22T01:22:52;13.10;99.90
20973;DHT22;10645;52.370;13.314;2023-07-22T01:25:23;13.10;99.90
20973;DHT22;10645;52.370;13.314;2023-07-22T01:27:50;13.10;99.90
20973;DHT22;10645;52.370;13.314;2023-07-22T01:30:17;13.10;99.90
20973;DHT22;10645;52.370;13.314;2023-07-22T01:32:43;13.20;99.90
20973;DHT22;10645;52.370;13.314;2023-07-22T01:35:09;13.20;99.90
20973;DHT22;10645;52.370;13.314;2023-07-22T01:37:35;13.20;99.90
20973;DHT22;10645;52.370;13.314;2023-07-22T01:40:02;13.20;99.90
20973;DHT22;10645;52.370;13.314;2023-07-22T01:42:39;13.20;99.90
20973;DHT22;10645;52.370;13.314;2023-07-22T01:45:06;13.20;99.90
20973;DHT22;10645;52.370;13.314;2023-07-22T01:47:34;13.20;99.90
20973;DHT22;10645;52.370;13.314;2023-07-22T01:50:02;13.20;99.90
20973;DHT22;10645;52.370;13.314;2023-07-22T01:52:28;13.20;99.90
20973;DHT22;10645;52.370;13.314;2023-07-22T01:54:54;13.10;99.90
20973;DHT22;10645;52.370;13.314;2023-07-22T01:57:20;13.10;99.90
20973;DHT22;10645;52.370;13.314;2023-07-22T01:59:46;13.10;99.90
20973;DHT22;10645;52.370;13.314;2023-07-22T02:02:13;13.10;99.90
20973;DHT22;10645;52.370;13.314;2023-07-22T02:04:39;13.10;99.90
20973;DHT22;10645;52.370;13.314;2023-07-22T02:07:05;13.10;99.90
20973;DHT22;10645;52.370;13.314;2023-07-22T02:09:32;13.10;99.90
20973;DHT22;10645;52.370;13.314;2023-07-22T02:11:59;13.10;99.90
20973;DHT22;10645;52.370;13.314;2023-07-22T02:14:25;13.10;99.90
20973;DHT22;10645;52.370;13.314;2023-07-22T02:16:51;13.10;99.90
20973;DHT22;10645;52.370;13.314;2023-07-22T02:19:17;13.10;99.90
20973;DHT22;10645;52.370;13.314;2023-07-22T02:21:43;13.10;99.90
20973;DHT22;10645;52.370;13.314;2023-07-22T02:24:10;13.00;99.90
20973;DHT22;10645;52.370;13.314;2023-07-22T02:26:36;13.00;99.90
20973;DHT22;10645;52.370;13.314;2023-07-22T02:29:02;13.00;99.90
20973;DHT22;10645;52.370;13.314;2023-07-22T02:31:28;13.00;99.90
20973;DHT22;10645;52.370;13.314;2023-07-22T02:33:54;12.90;99.90
20973;DHT22;10645;52.370;13.314;2023-07-22T02:36:21;12.90;99.90
20973;DHT22;10645;52.370;13.314;2023-07-22T02:38:49;13.00;99.90
20973;DHT22;10645;52.370;13.314;2023-07-22T02:41:15;12.90;99.90
20973;DHT22;10645;52.370;13.314;2023-07-22T02:43:41;12.90;99.90
20973;DHT22;10645;52.370;13.314;2023-07-22T02:46:07;13.00;99.90
20973;DHT22;10645;52.370;13.314;2023-07-22T02:48:34;12.90;99.90
20973;DHT22;10645;52.370;13.314;2023-07-22T02:51:05;12.90;99.90
20973;DHT22;10645;52.370;13.314;2023-07-22T02:53:32;12.90;99.90
20973;DHT22;10645;52.370;13.314;2023-07-22T02:55:59;12.90;99.90
20973;DHT22;10645;52.370;13.314;2023-07-22T02:58:25;12.90;99.90
20973;DHT22;10645;52.370;13.314;2023-07-22T03:00:51;12.80;99.90
20973;DHT22;10645;52.370;13.314;2023-07-22T03:03:17;12.80;99.90
20973;DHT22;10645;52.370;13.314;2023-07-22T03:05:45;12.80;99.90
20973;DHT22;10645;52.370;13.314;2023-07-22T03:08:11;12.80;99.90
20973;DHT22;10645;52.370;13.314;2023-07-22T03:10:37;12.80;99.90
20973;DHT22;10645;52.370;13.314;2023-07-22T03:13:03;12.80;99.90
20973;DHT22;10645;52.370;13.314;2023-07-22T03:15:30;12.80;99.90
20973;DHT22;10645;52.370;13.314;2023-07-22T03:17:56;12.80;99.90
20973;DHT22;10645;52.370;13.314;2023-07-22T03:20:28;12.80;99.90
20973;DHT22;10645;52.370;13.314;2023-07-22T03:22:54;12.80;99.90
20973;DHT22;10645;52.370;13.314;2023-07-22T03:25:20;12.80;99.90
20973;DHT22;10645;52.370;13.314;2023-07-22T03:27:46;12.70;99.90
20973;DHT22;10645;52.370;13.314;2023-07-22T03:30:14;12.70;99.90
20973;DHT22;10645;52.370;13.314;2023-07-22T03:32:49;12.70;99.90
20973;DHT22;10645;52.370;13.314;2023-07-22T03:35:18;12.70;99.90
20973;DHT22;10645;52.370;13.314;2023-07-22T03:37:44;12.70;99.90
20973;DHT22;10645;52.370;13.314;2023-07-22T03:40:11;12.70;99.90
20973;DHT22;10645;52.370;13.314;2023-07-22T03:42:41;12.80;99.90
20973;DHT22;10645;52.370;13.314;2023-07-22T03:45:08;12.80;99.90
20973;DHT22;10645;52.370;13.314;2023-07-22T03:47:35;12.80;99.90
20973;DHT22;10645;52.370;13.314;2023-07-22T03:50:02;12.80;99.90
20973;DHT22;10645;52.370;13.314;2023-07-22T03:52:28;12.80;99.90
20973;DHT22;10645;52.370;13.314;2023-07-22T03:54:54;12.80;99.90
20973;DHT22;10645;52.370;13.314;2023-07-22T03:57:28;12.80;99.90
20973;DHT22;10645;52.370;13.314;2023-07-22T03:59:55;12.80;99.90
20973;DHT22;10645;52.370;13.314;2023-07-22T04:02:21;12.80;99.90
20973;DHT22;10645;52.370;13.314;2023-07-22T04:04:47;12.70;99.90
20973;DHT22;10645;52.370;13.314;2023-07-22T04:07:14;12.70;99.90
20973;DHT22;10645;52.370;13.314;2023-07-22T04:09:40;12.70;99.90
20973;DHT22;10645;52.370;13.314;2023-07-22T04:12:07;12.70;99.90
20973;DHT22;10645;52.370;13.314;2023-07-22T04:14:33;12.70;99.90
20973;DHT22;10645;52.370;13.314;2023-07-22T04:17:00;12.70;99.90
20973;DHT22;10645;52.370;13.314;2023-07-22T04:19:26;12.70;99.90
20973;DHT22;10645;52.370;13.314;2023-07-22T04:21:52;12.80;99.90
20973;DHT22;10645;52.370;13.314;2023-07-22T04:24:18;12.80;99.90
20973;DHT22;10645;52.370;13.314;2023-07-22T04:26:44;12.80;99.90
20973;DHT22;10645;52.370;13.314;2023-07-22T04:29:11;12.80;99.90
20973;DHT22;10645;52.370;13.314;2023-07-22T04:31:38;12.90;99.90
20973;DHT22;10645;52.370;13.314;2023-07-22T04:34:05;12.90;99.90
20973;DHT22;10645;52.370;13.314;2023-07-22T04:36:31;13.00;99.90
20973;DHT22;10645;52.370;13.314;2023-07-22T04:38:57;13.00;99.90
20973;DHT22;10645;52.370;13.314;2023-07-22T04:41:23;13.10;99.90
20973;DHT22;10645;52.370;13.314;2023-07-22T04:43:51;13.20;99.90
20973;DHT22;10645;52.370;13.314;2023-07-22T04:46:17;13.30;99.90
20973;DHT22;10645;52.370;13.314;2023-07-22T04:48:43;13.30;99.90
20973;DHT22;10645;52.370;13.314;2023-07-22T04:51:09;13.30;99.90
20973;DHT22;10645;52.370;13.314;2023-07-22T04:53:35;13.40;99.90
20973;DHT22;10645;52.370;13.314;2023-07-22T04:56:01;13.40;99.90
20973;DHT22;10645;52.370;13.314;2023-07-22T04:58:28;13.50;99.90
20973;DHT22;10645;52.370;13.314;2023-07-22T05:00:54;13.60;99.90
20973;DHT22;10645;52.370;13.314;2023-07-22T05:03:20;13.60;99.90
20973;DHT22;10645;52.370;13.314;2023-07-22T05:05:47;13.70;99.90
20973;DHT22;10645;52.370;13.314;2023-07-22T05:08:14;13.60;99.90
20973;DHT22;10645;52.370;13.314;2023-07-22T05:10:40;13.70;99.90
20973;DHT22;10645;52.370;13.314;2023-07-22T05:13:06;13.80;99.90
20973;DHT22;10645;52.370;13.314;2023-07-22T05:15:32;13.80;99.90
20973;DHT22;10645;52.370;13.314;2023-07-22T05:17:58;13.90;99.90
20973;DHT22;10645;52.370;13.314;2023-07-22T05:20:24;13.90;99.90
20973;DHT22;10645;52.370;13.314;2023-07-22T05:22:50;13.90;99.90
20973;DHT22;10645;52.370;13.314;2023-07-22T05:25:16;14.10;99.90
20973;DHT22;10645;52.370;13.314;2023-07-22T05:27:42;14.10;99.90
20973;DHT22;10645;52.370;13.314;2023-07-22T05:30:08;14.20;99.90
20973;DHT22;10645;52.370;13.314;2023-07-22T05:32:35;14.20;99.90
20973;DHT22;10645;52.370;13.314;2023-07-22T05:35:01;14.30;99.90
20973;DHT22;10645;52.370;13.314;2023-07-22T05:37:29;14.30;99.90
20973;DHT22;10645;52.370;13.314;2023-07-22T05:39:56;14.40;99.90
20973;DHT22;10645;52.370;13.314;2023-07-22T05:42:22;14.40;99.90
20973;DHT22;10645;52.370;13.314;2023-07-22T05:44:48;14.60;99.90
20973;DHT22;10645;52.370;13.314;2023-07-22T05:47:14;14.60;99.90
20973;DHT22;10645;52.370;13.314;2023-07-22T05:49:40;14.70;99.90
20973;DHT22;10645;52.370;13.314;2023-07-22T05:52:06;14.70;99.90
20973;DHT22;10645;52.370;13.314;2023-07-22T05:54:33;14.70;99.90
20973;DHT22;10645;52.370;13.314;2023-07-22T05:56:59;14.80;99.90
20973;DHT22;10645;52.370;13.314;2023-07-22T05:59:25;14.80;99.90
20973;DHT22;10645;52.370;13.314;2023-07-22T06:01:51;15.00;99.90
20973;DHT22;10645;52.370;13.314;2023-07-22T06:04:17;15.00;99.90
20973;DHT22;10645;52.370;13.314;2023-07-22T06:06:43;15.10;99.90
20973;DHT22;10645;52.370;13.314;2023-07-22T06:09:09;15.10;99.90
20973;DHT22;10645;52.370;13.314;2023-07-22T06:11:36;15.20;99.90
20973;DHT22;10645;52.370;13.314;2023-07-22T06:14:02;15.40;99.90
20973;DHT22;10645;52.370;13.314;2023-07-22T06:16:28;15.50;99.90
20973;DHT22;10645;52.370;13.314;2023-07-22T06:18:54;15.60;99.90
20973;DHT22;10645;52.370;13.314;2023-07-22T06:21:20;15.70;99.90
20973;DHT22;10645;52.370;13.314;2023-07-22T06:23:46;15.80;99.90
20973;DHT22;10645;52.370;13.314;2023-07-22T06:26:12;15.90;99.90
20973;DHT22;10645;52.370;13.314;2023-07-22T06:28:38;15.90;99.90
20973;DHT22;10645;52.370;13.314;2023-07-22T06:31:04;16.00;99.90
20973;DHT22;10645;52.370;13.314;2023-07-22T06:33:30;16.10;99.90
20973;DHT22;10645;52.370;13.314;2023-07-22T06:35:59;16.10;99.90
20973;DHT22;10645;52.370;13.314;2023-07-22T06:38:25;16.20;99.90
20973;DHT22;10645;52.370;13.314;2023-07-22T06:40:54;16.10;99.90
20973;DHT22;10645;52.370;13.314;2023-07-22T06:43:20;16.30;99.90
20973;DHT22;10645;52.370;13.314;2023-07-22T06:45:46;16.40;99.90
20973;DHT22;10645;52.370;13.314;2023-07-22T06:48:12;16.40;99.90
20973;DHT22;10645;52.370;13.314;2023-07-22T06:50:38;16.40;99.90
20973;DHT22;10645;52.370;13.314;2023-07-22T06:53:04;16.50;99.90
20973;DHT22;10645;52.370;13.314;2023-07-22T06:55:30;16.50;99.90
20973;DHT22;10645;52.370;13.314;2023-07-22T06:57:56;16.60;99.90
20973;DHT22;10645;52.370;13.314;2023-07-22T07:00:23;16.70;99.90
20973;DHT22;10645;52.370;13.314;2023-07-22T07:02:49;16.60;99.90
20973;DHT22;10645;52.370;13.314;2023-07-22T07:05:15;16.50;99.90
20973;DHT22;10645;52.370;13.314;2023-07-22T07:07:42;16.50;99.90
20973;DHT22;10645;52.370;13.314;2023-07-22T07:10:09;16.60;99.90
20973;DHT22;10645;52.370;13.314;2023-07-22T07:12:36;16.70;99.90
20973;DHT22;10645;52.370;13.314;2023-07-22T07:15:02;16.70;99.90
20973;DHT22;10645;52.370;13.314;2023-07-22T07:17:28;16.90;99.90
20973;DHT22;10645;52.370;13.314;2023-07-22T07:19:54;17.00;99.90
20973;DHT22;10645;52.370;13.314;2023-07-22T07:22:20;16.90;99.90
20973;DHT22;10645;52.370;13.314;2023-07-22T07:24:46;16.90;99.90
20973;DHT22;10645;52.370;13.314;2023-07-22T07:27:12;17.00;99.90
20973;DHT22;10645;52.370;13.314;2023-07-22T07:29:38;17.10;99.90
20973;DHT22;10645;52.370;13.314;2023-07-22T07:32:05;17.30;99.90
20973;DHT22;10645;52.370;13.314;2023-07-22T07:34:31;17.50;99.90
20973;DHT22;10645;52.370;13.314;2023-07-22T07:36:57;17.60;99.90
20973;DHT22;10645;52.370;13.314;2023-07-22T07:39:23;17.80;99.90
20973;DHT22;10645;52.370;13.314;2023-07-22T07:41:49;17.90;99.90
20973;DHT22;10645;52.370;13.314;2023-07-22T07:44:15;18.10;99.90
20973;DHT22;10645;52.370;13.314;2023-07-22T07:46:41;18.30;99.90
20973;DHT22;10645;52.370;13.314;2023-07-22T07:49:07;18.40;99.90
20973;DHT22;10645;52.370;13.314;2023-07-22T07:51:33;18.40;99.90
20973;DHT22;10645;52.370;13.314;2023-07-22T07:53:59;18.50;99.90
20973;DHT22;10645;52.370;13.314;2023-07-22T07:56:26;18.50;99.90
20973;DHT22;10645;52.370;13.314;2023-07-22T07:58:53;18.50;99.90
20973;DHT22;10645;52.370;13.314;2023-07-22T08:01:19;18.30;99.90
20973;DHT22;10645;52.370;13.314;2023-07-22T08:03:47;18.40;99.90
20973;DHT22;10645;52.370;13.314;2023-07-22T08:06:13;18.40;99.90
20973;DHT22;10645;52.370;13.314;2023-07-22T08:08:39;18.40;99.90
20973;DHT22;10645;52.370;13.314;2023-07-22T08:11:10;18.40;99.90
20973;DHT22;10645;52.370;13.314;2023-07-22T08:13:37;18.60;99.90
20973;DHT22;10645;52.370;13.314;2023-07-22T08:16:05;18.70;99.90
20973;DHT22;10645;52.370;13.314;2023-07-22T08:18:33;18.80;99.90
20973;DHT22;10645;52.370;13.314;2023-07-22T08:20:59;18.70;99.90
20973;DHT22;10645;52.370;13.314;2023-07-22T08:23:25;18.70;99.90
20973;DHT22;10645;52.370;13.314;2023-07-22T08:25:54;18.90;99.90
20973;DHT22;10645;52.370;13.314;2023-07-22T08:28:20;19.00;99.90
20973;DHT22;10645;52.370;13.314;2023-07-22T08:30:48;19.20;99.90
20973;DHT22;10645;52.370;13.314;2023-07-22T08:33:14;19.10;99.90
20973;DHT22;10645;52.370;13.314;2023-07-22T08:35:42;19.00;99.90
20973;DHT22;10645;52.370;13.314;2023-07-22T08:38:09;18.90;99.90
20973;DHT22;10645;52.370;13.314;2023-07-22T08:40:39;18.90;99.90
20973;DHT22;10645;52.370;13.314;2023-07-22T08:43:07;18.80;99.90
20973;DHT22;10645;52.370;13.314;2023-07-22T08:45:35;18.80;99.90
20973;DHT22;10645;52.370;13.314;2023-07-22T08:48:04;18.80;99.90
20973;DHT22;10645;52.370;13.314;2023-07-22T08:53:17;18.80;99.90
20973;DHT22;10645;52.370;13.314;2023-07-22T08:55:45;18.70;99.90
20973;DHT22;10645;52.370;13.314;2023-07-22T08:58:12;18.70;99.90
20973;DHT22;10645;52.370;13.314;2023-07-22T09:00:39;18.90;99.90
20973;DHT22;10645;52.370;13.314;2023-07-22T09:03:05;19.00;99.90
20973;DHT22;10645;52.370;13.314;2023-07-22T09:05:32;19.00;99.90
20973;DHT22;10645;52.370;13.314;2023-07-22T09:08:01;19.10;99.90
20973;DHT22;10645;52.370;13.314;2023-07-22T09:10:27;19.30;99.90
20973;DHT22;10645;52.370;13.314;2023-07-22T09:12:54;19.70;99.90
20973;DHT22;10645;52.370;13.314;2023-07-22T09:15:20;19.70;99.90
20973;DHT22;10645;52.370;13.314;2023-07-22T09:17:47;19.80;99.90
20973;DHT22;10645;52.370;13.314;2023-07-22T09:20:14;19.80;99.90
20973;DHT22;10645;52.370;13.314;2023-07-22T09:22:50;20.00;99.90
20973;DHT22;10645;52.370;13.314;2023-07-22T09:25:27;20.00;99.90
20973;DHT22;10645;52.370;13.314;2023-07-22T09:28:03;20.40;99.90
20973;DHT22;10645;52.370;13.314;2023-07-22T09:30:30;20.30;99.90
20973;DHT22;10645;52.370;13.314;2023-07-22T09:32:59;20.10;99.90
20973;DHT22;10645;52.370;13.314;2023-07-22T09:35:31;19.90;99.90
20973;DHT22;10645;52.370;13.314;2023-07-22T09:37:58;20.00;99.90
20973;DHT22;10645;52.370;13.314;2023-07-22T09:40:26;20.30;99.90
20973;DHT22;10645;52.370;13.314;2023-07-22T09:42:54;20.80;99.90
20973;DHT22;10645;52.370;13.314;2023-07-22T09:45:23;21.00;99.90
20973;DHT22;10645;52.370;13.314;2023-07-22T09:47:51;21.30;99.90
20973;DHT22;10645;52.370;13.314;2023-07-22T09:50:22;21.00;99.90
20973;DHT22;10645;52.370;13.314;2023-07-22T09:52:53;20.90;99.90
20973;DHT22;10645;52.370;13.314;2023-07-22T09:55:21;20.80;99.90
20973;DHT22;10645;52.370;13.314;2023-07-22T09:57:53;20.60;99.90
20973;DHT22;10645;52.370;13.314;2023-07-22T10:00:20;20.70;99.90
20973;DHT22;10645;52.370;13.314;2023-07-22T10:02:48;20.50;99.90
20973;DHT22;10645;52.370;13.314;2023-07-22T10:05:20;20.60;99.90
20973;DHT22;10645;52.370;13.314;2023-07-22T10:07:52;20.70;99.90
20973;DHT22;10645;52.370;13.314;2023-07-22T10:10:39;21.00;99.90
20973;DHT22;10645;52.370;13.314;2023-07-22T10:13:05;20.80;99.90
20973;DHT22;10645;52.370;13.314;2023-07-22T10:15:33;20.70;99.90
20973;DHT22;10645;52.370;13.314;2023-07-22T10:18:03;20.90;99.90
20973;DHT22;10645;52.370;13.314;2023-07-22T10:20:31;21.10;99.90
20973;DHT22;10645;52.370;13.314;2023-07-22T10:23:00;21.30;99.90
20973;DHT22;10645;52.370;13.314;2023-07-22T10:25:27;21.60;99.90
20973;DHT22;10645;52.370;13.314;2023-07-22T10:27:53;21.80;99.50
20973;DHT22;10645;52.370;13.314;2023-07-22T10:30:19;21.50;98.40
20973;DHT22;10645;52.370;13.314;2023-07-22T10:32:48;21.40;99.90
20973;DHT22;10645;52.370;13.314;2023-07-22T10:38:13;21.30;99.90
20973;DHT22;10645;52.370;13.314;2023-07-22T10:40:49;21.20;99.90
20973;DHT22;10645;52.370;13.314;2023-07-22T10:43:17;21.40;99.30
20973;DHT22;10645;52.370;13.314;2023-07-22T10:45:57;21.40;99.70
20973;DHT22;10645;52.370;13.314;2023-07-22T10:48:27;21.60;98.80
20973;DHT22;10645;52.370;13.314;2023-07-22T10:50:58;21.90;98.50
20973;DHT22;10645;52.370;13.314;2023-07-22T10:58:56;21.80;97.00
20973;DHT22;10645;52.370;13.314;2023-07-22T11:06:52;21.70;97.30
20973;DHT22;10645;52.370;13.314;2023-07-22T11:11:57;21.50;98.10
20973;DHT22;10645;52.370;13.314;2023-07-22T11:14:28;21.40;97.60
20973;DHT22;10645;52.370;13.314;2023-07-22T11:16:57;21.20;97.10
20973;DHT22;10645;52.370;13.314;2023-07-22T11:19:24;21.20;97.80
20973;DHT22;10645;52.370;13.314;2023-07-22T11:21:52;21.20;97.50
20973;DHT22;10645;52.370;13.314;2023-07-22T11:24:19;21.30;97.20
20973;DHT22;10645;52.370;13.314;2023-07-22T11:26:47;21.40;97.10
20973;DHT22;10645;52.370;13.314;2023-07-22T11:29:14;22.00;97.40
20973;DHT22;10645;52.370;13.314;2023-07-22T11:31:45;22.20;97.10
20973;DHT22;10645;52.370;13.314;2023-07-22T11:34:16;22.60;95.30
20973;DHT22;10645;52.370;13.314;2023-07-22T11:36:43;22.60;95.60
20973;DHT22;10645;52.370;13.314;2023-07-22T11:39:14;23.10;95.30
20973;DHT22;10645;52.370;13.314;2023-07-22T11:41:42;23.10;94.90
20973;DHT22;10645;52.370;13.314;2023-07-22T11:44:10;22.90;94.00
20973;DHT22;10645;52.370;13.314;2023-07-22T11:46:55;23.10;94.50
20973;DHT22;10645;52.370;13.314;2023-07-22T11:49:29;22.90;93.90
20973;DHT22;10645;52.370;13.314;2023-07-22T11:52:00;22.80;93.90
20973;DHT22;10645;52.370;13.314;2023-07-22T11:54:28;22.60;93.10
20973;DHT22;10645;52.370;13.314;2023-07-22T11:56:55;22.60;93.50
20973;DHT22;10645;52.370;13.314;2023-07-22T11:59:36;23.00;93.30
20973;DHT22;10645;52.370;13.314;2023-07-22T12:02:03;23.60;94.90
20973;DHT22;10645;52.370;13.314;2023-07-22T12:04:32;23.80;92.20
20973;DHT22;10645;52.370;13.314;2023-07-22T12:07:00;23.80;92.00
20973;DHT22;10645;52.370;13.314;2023-07-22T12:09:26;24.10;93.10
20973;DHT22;10645;52.370;13.314;2023-07-22T12:11:59;24.00;91.80
20973;DHT22;10645;52.370;13.314;2023-07-22T12:14:34;23.70;91.90
20973;DHT22;10645;52.370;13.314;2023-07-22T12:17:00;23.60;91.10
20973;DHT22;10645;52.370;13.314;2023-07-22T12:19:29;23.20;91.80
20973;DHT22;10645;52.370;13.314;2023-07-22T12:21:56;22.90;92.60
20973;DHT22;10645;52.370;13.314;2023-07-22T12:24:27;23.00;92.40
20973;DHT22;10645;52.370;13.314;2023-07-22T12:26:54;23.20;92.80
20973;DHT22;10645;52.370;13.314;2023-07-22T12:29:20;23.70;92.30
20973;DHT22;10645;52.370;13.314;2023-07-22T12:31:48;23.80;91.70
20973;DHT22;10645;52.370;13.314;2023-07-22T12:34:14;23.60;91.60
20973;DHT22;10645;52.370;13.314;2023-07-22T12:36:40;23.50;91.60
20973;DHT22;10645;52.370;13.314;2023-07-22T12:39:07;23.60;92.10
20973;DHT22;10645;52.370;13.314;2023-07-22T12:41:33;23.60;91.30
20973;DHT22;10645;52.370;13.314;2023-07-22T12:43:59;23.80;92.20
20973;DHT22;10645;52.370;13.314;2023-07-22T12:46:25;24.00;94.20
20973;DHT22;10645;52.370;13.314;2023-07-22T12:48:52;23.90;91.10
20973;DHT22;10645;52.370;13.314;2023-07-22T12:51:18;23.90;91.50
20973;DHT22;10645;52.370;13.314;2023-07-22T12:53:44;24.00;92.80
20973;DHT22;10645;52.370;13.314;2023-07-22T12:56:10;24.30;92.20
20973;DHT22;10645;52.370;13.314;2023-07-22T12:58:36;24.00;90.50
20973;DHT22;10645;52.370;13.314;2023-07-22T13:01:02;24.50;93.40
20973;DHT22;10645;52.370;13.314;2023-07-22T13:03:28;24.70;92.20
20973;DHT22;10645;52.370;13.314;2023-07-22T13:05:54;24.30;90.50
20973;DHT22;10645;52.370;13.314;2023-07-22T13:08:20;24.20;91.10
20973;DHT22;10645;52.370;13.314;2023-07-22T13:10:46;24.30;92.40
20973;DHT22;10645;52.370;13.314;2023-07-22T13:13:13;23.70;91.00
20973;DHT22;10645;52.370;13.314;2023-07-22T13:15:39;23.60;91.90
20973;DHT22;10645;52.370;13.314;2023-07-22T13:18:05;23.50;91.60
20973;DHT22;10645;52.370;13.314;2023-07-22T13:20:31;23.20;91.10
20973;DHT22;10645;52.370;13.314;2023-07-22T13:22:58;23.20;91.70
20973;DHT22;10645;52.370;13.314;2023-07-22T13:25:24;22.90;91.50
20973;DHT22;10645;52.370;13.314;2023-07-22T13:27:50;22.80;93.10
20973;DHT22;10645;52.370;13.314;2023-07-22T13:30:16;22.50;92.50
20973;DHT22;10645;52.370;13.314;2023-07-22T13:32:42;22.80;93.00
20973;DHT22;10645;52.370;13.314;2023-07-22T13:35:08;23.10;93.80
20973;DHT22;10645;52.370;13.314;2023-07-22T13:37:35;23.30;93.00
20973;DHT22;10645;52.370;13.314;2023-07-22T13:40:02;23.40;92.90
20973;DHT22;10645;52.370;13.314;2023-07-22T13:42:30;22.90;91.90
20973;DHT22;10645;52.370;13.314;2023-07-22T13:44:57;22.80;92.30
20973;DHT22;10645;52.370;13.314;2023-07-22T13:47:23;22.70;93.00
20973;DHT22;10645;52.370;13.314;2023-07-22T13:49:49;22.80;93.80
20973;DHT22;10645;52.370;13.314;2023-07-22T13:52:15;23.00;93.50
20973;DHT22;10645;52.370;13.314;2023-07-22T13:54:41;23.40;93.10
20973;DHT22;10645;52.370;13.314;2023-07-22T13:57:07;23.30;92.60
20973;DHT22;10645;52.370;13.314;2023-07-22T13:59:33;23.60;92.40
20973;DHT22;10645;52.370;13.314;2023-07-22T14:01:59;23.70;92.60
20973;DHT22;10645;52.370;13.314;2023-07-22T14:04:25;23.80;92.80
20973;DHT22;10645;52.370;13.314;2023-07-22T14:06:51;23.50;91.60
20973;DHT22;10645;52.370;13.314;2023-07-22T14:09:17;23.30;91.60
20973;DHT22;10645;52.370;13.314;2023-07-22T14:11:43;23.20;92.40
20973;DHT22;10645;52.370;13.314;2023-07-22T14:14:09;23.20;92.90
20973;DHT22;10645;52.370;13.314;2023-07-22T14:16:36;23.30;92.30
20973;DHT22;10645;52.370;13.314;2023-07-22T14:19:02;23.40;92.00
20973;DHT22;10645;52.370;13.314;2023-07-22T14:21:28;23.50;92.70
20973;DHT22;10645;52.370;13.314;2023-07-22T14:23:54;23.50;91.20
20973;DHT22;10645;52.370;13.314;2023-07-22T14:26:21;23.50;91.40
20973;DHT22;10645;52.370;13.314;2023-07-22T14:28:47;23.70;91.00
20973;DHT22;10645;52.370;13.314;2023-07-22T14:31:13;23.90;91.50
20973;DHT22;10645;52.370;13.314;2023-07-22T14:33:39;24.10;92.60
20973;DHT22;10645;52.370;13.314;2023-07-22T14:36:05;24.20;90.90
20973;DHT22;10645;52.370;13.314;2023-07-22T14:38:31;24.20;91.10
20973;DHT22;10645;52.370;13.314;2023-07-22T14:40:57;24.00;91.40
20973;DHT22;10645;52.370;13.314;2023-07-22T14:43:23;23.90;91.50
20973;DHT22;10645;52.370;13.314;2023-07-22T14:45:49;23.90;91.10
20973;DHT22;10645;52.370;13.314;2023-07-22T14:48:16;24.00;93.10
20973;DHT22;10645;52.370;13.314;2023-07-22T14:50:42;24.00;91.40
20973;DHT22;10645;52.370;13.314;2023-07-22T14:53:08;24.00;91.40
20973;DHT22;10645;52.370;13.314;2023-07-22T14:55:34;24.00;91.40
20973;DHT22;10645;52.370;13.314;2023-07-22T14:58:00;23.90;91.50
20973;DHT22;10645;52.370;13.314;2023-07-22T15:00:26;23.80;91.80
20973;DHT22;10645;52.370;13.314;2023-07-22T15:02:52;23.50;91.50
20973;DHT22;10645;52.370;13.314;2023-07-22T15:05:18;23.30;91.90
20973;DHT22;10645;52.370;13.314;2023-07-22T15:07:44;22.90;91.90
20973;DHT22;10645;52.370;13.314;2023-07-22T15:10:10;22.80;93.40
20973;DHT22;10645;52.370;13.314;2023-07-22T15:12:36;22.80;93.70
20973;DHT22;10645;52.370;13.314;2023-07-22T15:15:03;22.70;94.50
20973;DHT22;10645;52.370;13.314;2023-07-22T15:17:29;22.80;94.30
20973;DHT22;10645;52.370;13.314;2023-07-22T15:19:57;22.80;95.20
20973;DHT22;10645;52.370;13.314;2023-07-22T15:22:23;22.80;93.10
20973;DHT22;10645;52.370;13.314;2023-07-22T15:24:49;22.80;94.10
20973;DHT22;10645;52.370;13.314;2023-07-22T15:27:16;22.80;94.10
20973;DHT22;10645;52.370;13.314;2023-07-22T15:29:42;22.90;93.50
20973;DHT22;10645;52.370;13.314;2023-07-22T15:32:08;22.80;92.70
20973;DHT22;10645;52.370;13.314;2023-07-22T15:34:34;22.80;92.40